sensor_id;sensor_type;location;lat;lon;timestamp;P1;durP1;ratioP1;P2;durP2;ratioP2
16577;SDS011;8401;52.528;13.340;2022-08-19T00:00:11;12.05;;;10.80;;
16577;SDS011;8401;52.528;13.340;2022-08-19T00:02:39;12.27;;;11.18;;
16577;SDS011;8401;52.528;13.340;2022-08-19T00:05:06;13.05;;;11.85;;
16577;SDS011;8401;52.528;13.340;2022-08-19T00:07:33;12.82;;;11.23;;
16577;SDS011;8401;52.528;13.340;2022-08-19T00:09:58;13.45;;;11.63;;
16577;SDS011;8401;52.528;13.340;2022-08-19T00:12:24;14.60;;;11.93;;
16577;SDS011;8401;52.528;13.340;2022-08-19T00:14:50;13.25;;;12.05;;
16577;SDS011;8401;52.528;13.340;2022-08-19T00:17:15;12.27;;;11.07;;
16577;SDS011;8401;52.528;13.340;2022-08-19T00:19:41;13.90;;;12.50;;
16577;SDS011;8401;52.528;13.340;2022-08-19T00:22:06;12.93;;;11.63;;
16577;SDS011;8401;52.528;13.340;2022-08-19T00:24:33;13.35;;;12.05;;
16577;SDS011;8401;52.528;13.340;2022-08-19T00:27:00;12.23;;;11.02;;
16577;SDS011;8401;52.528;13.340;2022-08-19T00:29:27;13.68;;;12.20;;
16577;SDS011;8401;52.528;13.340;2022-08-19T00:31:53;12.77;;;11.60;;
16577;SDS011;8401;52.528;13.340;2022-08-19T00:34:21;13.23;;;11.73;;
16577;SDS011;8401;52.528;13.340;2022-08-19T00:36:48;12.23;;;11.02;;
16577;SDS011;8401;52.528;13.340;2022-08-19T00:39:14;12.98;;;11.77;;
16577;SDS011;8401;52.528;13.340;2022-08-19T00:41:41;11.90;;;10.65;;
16577;SDS011;8401;52.528;13.340;2022-08-19T00:44:12;12.40;;;11.20;;
16577;SDS011;8401;52.528;13.340;2022-08-19T00:46:41;12.02;;;10.82;;
16577;SDS011;8401;52.528;13.340;2022-08-19T00:49:13;11.65;;;10.57;;
16577;SDS011;8401;52.528;13.340;2022-08-19T00:51:43;12.90;;;11.68;;
16577;SDS011;8401;52.528;13.340;2022-08-19T00:54:12;12.57;;;11.35;;
16577;SDS011;8401;52.528;13.340;2022-08-19T00:56:38;12.63;;;11.35;;
16577;SDS011;8401;52.528;13.340;2022-08-19T00:59:05;12.73;;;11.23;;
16577;SDS011;8401;52.528;13.340;2022-08-19T01:01:37;13.65;;;11.80;;
16577;SDS011;8401;52.528;13.340;2022-08-19T01:04:05;13.40;;;11.10;;
16577;SDS011;8401;52.528;13.340;2022-08-19T01:06:32;13.75;;;12.18;;
16577;SDS011;8401;52.528;13.340;2022-08-19T01:08:59;12.85;;;11.45;;
16577;SDS011;8401;52.528;13.340;2022-08-19T01:11:26;13.60;;;11.38;;
16577;SDS011;8401;52.528;13.340;2022-08-19T01:13:53;13.00;;;11.65;;
16577;SDS011;8401;52.528;13.340;2022-08-19T01:16:20;15.43;;;11.63;;
16577;SDS011;8401;52.528;13.340;2022-08-19T01:18:48;13.43;;;12.07;;
16577;SDS011;8401;52.528;13.340;2022-08-19T01:23:49;13.90;;;12.43;;
16577;SDS011;8401;52.528;13.340;2022-08-19T01:26:17;11.82;;;10.57;;
16577;SDS011;8401;52.528;13.340;2022-08-19T01:28:45;12.70;;;11.35;;
16577;SDS011;8401;52.528;13.340;2022-08-19T01:31:13;11.55;;;10.35;;
16577;SDS011;8401;52.528;13.340;2022-08-19T01:33:43;12.82;;;11.40;;
16577;SDS011;8401;52.528;13.340;2022-08-19T01:36:11;12.07;;;10.98;;
16577;SDS011;8401;52.528;13.340;2022-08-19T01:38:40;13.05;;;11.68;;
16577;SDS011;8401;52.528;13.340;2022-08-19T01:41:08;13.93;;;12.55;;
16577;SDS011;8401;52.528;13.340;2022-08-19T01:43:37;13.05;;;11.85;;
16577;SDS011;8401;52.528;13.340;2022-08-19T01:46:03;13.45;;;12.15;;
16577;SDS011;8401;52.528;13.340;2022-08-19T01:48:33;13.32;;;12.02;;
16577;SDS011;8401;52.528;13.340;2022-08-19T01:51:07;13.98;;;12.52;;
16577;SDS011;8401;52.528;13.340;2022-08-19T01:53:34;13.55;;;11.45;;
16577;SDS011;8401;52.528;13.340;2022-08-19T01:56:00;13.85;;;12.20;;
16577;SDS011;8401;52.528;13.340;2022-08-19T01:58:31;12.77;;;11.48;;
16577;SDS011;8401;52.528;13.340;2022-08-19T02:01:01;14.30;;;12.35;;
16577;SDS011;8401;52.528;13.340;2022-08-19T02:03:26;14.27;;;12.80;;
16577;SDS011;8401;52.528;13.340;2022-08-19T02:05:55;13.98;;;12.23;;
16577;SDS011;8401;52.528;13.340;2022-08-19T02:08:22;13.65;;;12.25;;
16577;SDS011;8401;52.528;13.340;2022-08-19T02:10:48;13.70;;;12.30;;
16577;SDS011;8401;52.528;13.340;2022-08-19T02:13:14;13.65;;;12.25;;
16577;SDS011;8401;52.528;13.340;2022-08-19T02:15:40;14.25;;;12.85;;
16577;SDS011;8401;52.528;13.340;2022-08-19T02:18:06;14.07;;;12.20;;
16577;SDS011;8401;52.528;13.340;2022-08-19T02:20:33;13.73;;;12.23;;
16577;SDS011;8401;52.528;13.340;2022-08-19T02:22:58;14.25;;;12.80;;
16577;SDS011;8401;52.528;13.340;2022-08-19T02:25:25;14.48;;;12.68;;
16577;SDS011;8401;52.528;13.340;2022-08-19T02:27:50;14.45;;;13.05;;
16577;SDS011;8401;52.528;13.340;2022-08-19T02:30:16;15.77;;;12.77;;
16577;SDS011;8401;52.528;13.340;2022-08-19T02:32:42;14.50;;;13.00;;
16577;SDS011;8401;52.528;13.340;2022-08-19T02:35:08;14.45;;;12.95;;
16577;SDS011;8401;52.528;13.340;2022-08-19T02:37:34;14.13;;;12.73;;
16577;SDS011;8401;52.528;13.340;2022-08-19T02:40:18;14.82;;;13.05;;
16577;SDS011;8401;52.528;13.340;2022-08-19T02:42:44;14.70;;;13.20;;
16577;SDS011;8401;52.528;13.340;2022-08-19T02:45:11;14.50;;;13.10;;
16577;SDS011;8401;52.528;13.340;2022-08-19T02:47:38;15.93;;;14.30;;
16577;SDS011;8401;52.528;13.340;2022-08-19T02:50:04;14.55;;;13.05;;
16577;SDS011;8401;52.528;13.340;2022-08-19T02:52:31;16.02;;;13.20;;
16577;SDS011;8401;52.528;13.340;2022-08-19T02:54:58;14.52;;;12.93;;
16577;SDS011;8401;52.528;13.340;2022-08-19T02:57:23;14.85;;;12.50;;
16577;SDS011;8401;52.528;13.340;2022-08-19T02:59:49;14.20;;;12.82;;
16577;SDS011;8401;52.528;13.340;2022-08-19T03:02:15;14.13;;;12.70;;
16577;SDS011;8401;52.528;13.340;2022-08-19T03:04:41;15.30;;;13.80;;
16577;SDS011;8401;52.528;13.340;2022-08-19T03:07:07;14.75;;;12.60;;
16577;SDS011;8401;52.528;13.340;2022-08-19T03:09:35;16.15;;;13.63;;
16577;SDS011;8401;52.528;13.340;2022-08-19T03:12:02;15.20;;;13.60;;
16577;SDS011;8401;52.528;13.340;2022-08-19T03:14:32;14.68;;;13.27;;
16577;SDS011;8401;52.528;13.340;2022-08-19T03:16:58;13.95;;;12.65;;
16577;SDS011;8401;52.528;13.340;2022-08-19T03:19:23;16.10;;;12.80;;
16577;SDS011;8401;52.528;13.340;2022-08-19T03:21:49;13.93;;;12.52;;
16577;SDS011;8401;52.528;13.340;2022-08-19T03:24:16;16.25;;;13.73;;
16577;SDS011;8401;52.528;13.340;2022-08-19T03:26:44;16.00;;;14.32;;
16577;SDS011;8401;52.528;13.340;2022-08-19T03:29:13;16.50;;;14.73;;
16577;SDS011;8401;52.528;13.340;2022-08-19T03:31:40;17.20;;;14.98;;
16577;SDS011;8401;52.528;13.340;2022-08-19T03:34:08;17.98;;;15.32;;
16577;SDS011;8401;52.528;13.340;2022-08-19T03:36:36;17.75;;;15.55;;
16577;SDS011;8401;52.528;13.340;2022-08-19T03:39:02;15.52;;;14.02;;
16577;SDS011;8401;52.528;13.340;2022-08-19T03:41:30;16.92;;;15.20;;
16577;SDS011;8401;52.528;13.340;2022-08-19T03:43:57;16.42;;;14.82;;
16577;SDS011;8401;52.528;13.340;2022-08-19T03:46:24;18.02;;;14.50;;
16577;SDS011;8401;52.528;13.340;2022-08-19T03:48:53;17.10;;;14.45;;
16577;SDS011;8401;52.528;13.340;2022-08-19T03:51:21;16.75;;;15.07;;
16577;SDS011;8401;52.528;13.340;2022-08-19T03:53:50;16.15;;;14.55;;
16577;SDS011;8401;52.528;13.340;2022-08-19T03:56:17;15.57;;;13.95;;
16577;SDS011;8401;52.528;13.340;2022-08-19T03:58:43;15.13;;;13.43;;
16577;SDS011;8401;52.528;13.340;2022-08-19T04:01:10;15.60;;;13.88;;
16577;SDS011;8401;52.528;13.340;2022-08-19T04:03:38;14.45;;;12.95;;
16577;SDS011;8401;52.528;13.340;2022-08-19T04:06:16;14.68;;;13.27;;
16577;SDS011;8401;52.528;13.340;2022-08-19T04:08:46;14.20;;;12.75;;
16577;SDS011;8401;52.528;13.340;2022-08-19T04:11:14;15.23;;;13.65;;
16577;SDS011;8401;52.528;13.340;2022-08-19T04:13:41;15.23;;;13.63;;
16577;SDS011;8401;52.528;13.340;2022-08-19T04:16:09;14.93;;;13.52;;
16577;SDS011;8401;52.528;13.340;2022-08-19T04:18:36;16.45;;;14.05;;
16577;SDS011;8401;52.528;13.340;2022-08-19T04:21:04;15.43;;;13.93;;
16577;SDS011;8401;52.528;13.340;2022-08-19T04:23:30;15.27;;;13.70;;
16577;SDS011;8401;52.528;13.340;2022-08-19T04:25:57;15.57;;;13.90;;
16577;SDS011;8401;52.528;13.340;2022-08-19T04:28:23;14.38;;;12.88;;
16577;SDS011;8401;52.528;13.340;2022-08-19T04:30:50;15.30;;;13.90;;
16577;SDS011;8401;52.528;13.340;2022-08-19T04:33:17;15.05;;;13.65;;
16577;SDS011;8401;52.528;13.340;2022-08-19T04:35:46;15.52;;;13.93;;
16577;SDS011;8401;52.528;13.340;2022-08-19T04:38:13;15.77;;;13.88;;
16577;SDS011;8401;52.528;13.340;2022-08-19T04:40:41;14.68;;;12.80;;
16577;SDS011;8401;52.528;13.340;2022-08-19T04:43:33;14.65;;;13.15;;
16577;SDS011;8401;52.528;13.340;2022-08-19T04:46:10;13.48;;;12.13;;
16577;SDS011;8401;52.528;13.340;2022-08-19T04:48:38;13.52;;;12.23;;
16577;SDS011;8401;52.528;13.340;2022-08-19T04:51:08;14.13;;;12.73;;
16577;SDS011;8401;52.528;13.340;2022-08-19T04:53:36;12.98;;;11.68;;
16577;SDS011;8401;52.528;13.340;2022-08-19T04:56:12;12.98;;;11.65;;
16577;SDS011;8401;52.528;13.340;2022-08-19T04:58:40;12.77;;;11.55;;
16577;SDS011;8401;52.528;13.340;2022-08-19T05:01:08;14.00;;;12.50;;
16577;SDS011;8401;52.528;13.340;2022-08-19T05:03:38;12.82;;;11.57;;
16577;SDS011;8401;52.528;13.340;2022-08-19T05:06:08;14.55;;;12.98;;
16577;SDS011;8401;52.528;13.340;2022-08-19T05:08:36;13.10;;;11.82;;
16577;SDS011;8401;52.528;13.340;2022-08-19T05:13:36;13.30;;;11.90;;
16577;SDS011;8401;52.528;13.340;2022-08-19T05:16:02;12.90;;;11.60;;
16577;SDS011;8401;52.528;13.340;2022-08-19T05:18:28;13.65;;;12.32;;
16577;SDS011;8401;52.528;13.340;2022-08-19T05:21:13;13.02;;;11.43;;
16577;SDS011;8401;52.528;13.340;2022-08-19T05:23:59;15.70;;;12.27;;
16577;SDS011;8401;52.528;13.340;2022-08-19T05:26:25;13.10;;;11.90;;
16577;SDS011;8401;52.528;13.340;2022-08-19T05:28:54;12.80;;;11.60;;
16577;SDS011;8401;52.528;13.340;2022-08-19T05:31:20;13.18;;;11.88;;
16577;SDS011;8401;52.528;13.340;2022-08-19T05:33:46;12.65;;;11.45;;
16577;SDS011;8401;52.528;13.340;2022-08-19T05:36:12;14.73;;;11.68;;
16577;SDS011;8401;52.528;13.340;2022-08-19T05:38:38;13.77;;;11.95;;
16577;SDS011;8401;52.528;13.340;2022-08-19T05:41:08;12.70;;;11.50;;
16577;SDS011;8401;52.528;13.340;2022-08-19T05:43:36;13.55;;;12.25;;
16577;SDS011;8401;52.528;13.340;2022-08-19T05:46:02;12.63;;;11.32;;
16577;SDS011;8401;52.528;13.340;2022-08-19T05:48:30;14.15;;;12.13;;
16577;SDS011;8401;52.528;13.340;2022-08-19T05:50:57;12.85;;;11.65;;
16577;SDS011;8401;52.528;13.340;2022-08-19T05:53:24;13.63;;;12.27;;
16577;SDS011;8401;52.528;13.340;2022-08-19T05:55:50;13.38;;;12.07;;
16577;SDS011;8401;52.528;13.340;2022-08-19T05:58:15;13.70;;;12.35;;
16577;SDS011;8401;52.528;13.340;2022-08-19T06:00:42;13.48;;;12.20;;
16577;SDS011;8401;52.528;13.340;2022-08-19T06:03:09;13.20;;;11.90;;
16577;SDS011;8401;52.528;13.340;2022-08-19T06:05:35;13.55;;;12.18;;
16577;SDS011;8401;52.528;13.340;2022-08-19T06:08:00;14.25;;;12.70;;
16577;SDS011;8401;52.528;13.340;2022-08-19T06:10:26;14.35;;;12.48;;
16577;SDS011;8401;52.528;13.340;2022-08-19T06:12:52;14.18;;;12.85;;
16577;SDS011;8401;52.528;13.340;2022-08-19T06:15:18;13.35;;;11.95;;
16577;SDS011;8401;52.528;13.340;2022-08-19T06:17:44;14.45;;;13.02;;
16577;SDS011;8401;52.528;13.340;2022-08-19T06:20:11;14.30;;;12.90;;
16577;SDS011;8401;52.528;13.340;2022-08-19T06:22:39;13.93;;;12.63;;
16577;SDS011;8401;52.528;13.340;2022-08-19T06:25:10;14.73;;;12.88;;
16577;SDS011;8401;52.528;13.340;2022-08-19T06:27:37;14.70;;;13.30;;
16577;SDS011;8401;52.528;13.340;2022-08-19T06:30:03;14.52;;;12.85;;
16577;SDS011;8401;52.528;13.340;2022-08-19T06:32:29;14.55;;;12.85;;
16577;SDS011;8401;52.528;13.340;2022-08-19T06:34:55;14.63;;;12.75;;
16577;SDS011;8401;52.528;13.340;2022-08-19T06:37:21;20.02;;;13.18;;
16577;SDS011;8401;52.528;13.340;2022-08-19T06:39:47;15.18;;;13.10;;
16577;SDS011;8401;52.528;13.340;2022-08-19T06:42:14;19.35;;;13.75;;
16577;SDS011;8401;52.528;13.340;2022-08-19T06:44:43;15.88;;;13.63;;
16577;SDS011;8401;52.528;13.340;2022-08-19T06:47:14;15.18;;;13.80;;
16577;SDS011;8401;52.528;13.340;2022-08-19T06:49:43;15.43;;;13.93;;
16577;SDS011;8401;52.528;13.340;2022-08-19T06:52:08;17.70;;;14.40;;
16577;SDS011;8401;52.528;13.340;2022-08-19T06:54:37;15.90;;;14.32;;
16577;SDS011;8401;52.528;13.340;2022-08-19T06:57:02;16.05;;;14.50;;
16577;SDS011;8401;52.528;13.340;2022-08-19T06:59:29;15.73;;;14.13;;
16577;SDS011;8401;52.528;13.340;2022-08-19T07:01:58;15.98;;;14.48;;
16577;SDS011;8401;52.528;13.340;2022-08-19T07:04:26;16.88;;;15.10;;
16577;SDS011;8401;52.528;13.340;2022-08-19T07:07:13;16.73;;;15.00;;
16577;SDS011;8401;52.528;13.340;2022-08-19T07:09:41;16.85;;;15.05;;
16577;SDS011;8401;52.528;13.340;2022-08-19T07:12:09;17.08;;;15.27;;
16577;SDS011;8401;52.528;13.340;2022-08-19T07:14:37;18.48;;;15.88;;
16577;SDS011;8401;52.528;13.340;2022-08-19T07:17:07;16.88;;;15.10;;
16577;SDS011;8401;52.528;13.340;2022-08-19T07:19:34;16.73;;;15.10;;
16577;SDS011;8401;52.528;13.340;2022-08-19T07:22:02;16.30;;;14.70;;
16577;SDS011;8401;52.528;13.340;2022-08-19T07:24:29;15.20;;;13.80;;
16577;SDS011;8401;52.528;13.340;2022-08-19T07:26:57;15.75;;;14.20;;
16577;SDS011;8401;52.528;13.340;2022-08-19T07:29:26;16.67;;;15.18;;
16577;SDS011;8401;52.528;13.340;2022-08-19T07:31:53;16.45;;;14.68;;
16577;SDS011;8401;52.528;13.340;2022-08-19T07:34:23;17.05;;;15.35;;
16577;SDS011;8401;52.528;13.340;2022-08-19T07:36:50;17.55;;;15.73;;
16577;SDS011;8401;52.528;13.340;2022-08-19T07:39:18;17.27;;;15.48;;
16577;SDS011;8401;52.528;13.340;2022-08-19T07:41:46;16.70;;;15.10;;
16577;SDS011;8401;52.528;13.340;2022-08-19T07:44:12;17.30;;;15.65;;
16577;SDS011;8401;52.528;13.340;2022-08-19T07:46:40;19.77;;;16.48;;
16577;SDS011;8401;52.528;13.340;2022-08-19T07:49:09;18.13;;;15.82;;
16577;SDS011;8401;52.528;13.340;2022-08-19T07:51:39;17.67;;;15.98;;
16577;SDS011;8401;52.528;13.340;2022-08-19T07:54:05;18.30;;;16.48;;
16577;SDS011;8401;52.528;13.340;2022-08-19T07:56:31;18.83;;;17.02;;
16577;SDS011;8401;52.528;13.340;2022-08-19T07:58:56;18.75;;;16.50;;
16577;SDS011;8401;52.528;13.340;2022-08-19T08:01:23;17.33;;;15.63;;
16577;SDS011;8401;52.528;13.340;2022-08-19T08:03:51;18.50;;;16.10;;
16577;SDS011;8401;52.528;13.340;2022-08-19T08:06:36;17.75;;;15.85;;
16577;SDS011;8401;52.528;13.340;2022-08-19T08:09:22;17.88;;;16.05;;
16577;SDS011;8401;52.528;13.340;2022-08-19T08:16:53;18.15;;;16.35;;
16577;SDS011;8401;52.528;13.340;2022-08-19T08:19:19;18.30;;;16.40;;
16577;SDS011;8401;52.528;13.340;2022-08-19T08:21:46;18.67;;;16.85;;
16577;SDS011;8401;52.528;13.340;2022-08-19T08:24:13;21.05;;;16.52;;
16577;SDS011;8401;52.528;13.340;2022-08-19T08:26:39;18.33;;;16.42;;
16577;SDS011;8401;52.528;13.340;2022-08-19T08:29:05;18.92;;;16.88;;
16577;SDS011;8401;52.528;13.340;2022-08-19T08:31:35;21.17;;;18.52;;
16577;SDS011;8401;52.528;13.340;2022-08-19T08:34:01;19.15;;;17.35;;
16577;SDS011;8401;52.528;13.340;2022-08-19T08:36:27;19.77;;;17.80;;
16577;SDS011;8401;52.528;13.340;2022-08-19T08:38:52;17.88;;;16.10;;
16577;SDS011;8401;52.528;13.340;2022-08-19T08:41:22;19.02;;;17.23;;
16577;SDS011;8401;52.528;13.340;2022-08-19T08:44:06;17.77;;;15.98;;
16577;SDS011;8401;52.528;13.340;2022-08-19T08:46:41;19.38;;;17.38;;
16577;SDS011;8401;52.528;13.340;2022-08-19T08:49:16;18.63;;;16.80;;
16577;SDS011;8401;52.528;13.340;2022-08-19T08:52:03;18.48;;;16.58;;
16577;SDS011;8401;52.528;13.340;2022-08-19T08:54:55;19.30;;;17.10;;
16577;SDS011;8401;52.528;13.340;2022-08-19T08:57:43;18.55;;;16.70;;
16577;SDS011;8401;52.528;13.340;2022-08-19T09:00:20;18.95;;;16.80;;
16577;SDS011;8401;52.528;13.340;2022-08-19T09:02:48;19.27;;;17.30;;
16577;SDS011;8401;52.528;13.340;2022-08-19T09:05:14;19.40;;;17.23;;
16577;SDS011;8401;52.528;13.340;2022-08-19T09:10:24;19.88;;;17.75;;
16577;SDS011;8401;52.528;13.340;2022-08-19T09:13:41;19.80;;;17.80;;
16577;SDS011;8401;52.528;13.340;2022-08-19T09:15:55;17.73;;;16.13;;
16577;SDS011;8401;52.528;13.340;2022-08-19T09:18:26;19.85;;;17.65;;
16577;SDS011;8401;52.528;13.340;2022-08-19T09:21:03;17.20;;;15.50;;
16577;SDS011;8401;52.528;13.340;2022-08-19T09:23:28;17.95;;;16.35;;
16577;SDS011;8401;52.528;13.340;2022-08-19T09:25:54;17.38;;;15.57;;
16577;SDS011;8401;52.528;13.340;2022-08-19T09:28:19;17.33;;;15.68;;
16577;SDS011;8401;52.528;13.340;2022-08-19T09:30:45;16.95;;;15.10;;
16577;SDS011;8401;52.528;13.340;2022-08-19T09:33:11;17.00;;;14.93;;
16577;SDS011;8401;52.528;13.340;2022-08-19T09:35:36;18.05;;;15.38;;
16577;SDS011;8401;52.528;13.340;2022-08-19T09:38:02;16.23;;;14.73;;
16577;SDS011;8401;52.528;13.340;2022-08-19T09:40:28;16.95;;;15.23;;
16577;SDS011;8401;52.528;13.340;2022-08-19T09:42:54;16.63;;;14.95;;
16577;SDS011;8401;52.528;13.340;2022-08-19T09:45:22;17.17;;;15.57;;
16577;SDS011;8401;52.528;13.340;2022-08-19T09:47:51;16.65;;;15.05;;
16577;SDS011;8401;52.528;13.340;2022-08-19T09:50:18;16.80;;;15.20;;
16577;SDS011;8401;52.528;13.340;2022-08-19T09:52:43;16.08;;;14.35;;
16577;SDS011;8401;52.528;13.340;2022-08-19T09:55:10;16.40;;;14.80;;
16577;SDS011;8401;52.528;13.340;2022-08-19T09:57:36;15.68;;;14.05;;
16577;SDS011;8401;52.528;13.340;2022-08-19T10:00:03;17.15;;;15.32;;
16577;SDS011;8401;52.528;13.340;2022-08-19T10:02:31;17.27;;;15.48;;
16577;SDS011;8401;52.528;13.340;2022-08-19T10:04:57;18.20;;;15.70;;
16577;SDS011;8401;52.528;13.340;2022-08-19T10:07:41;17.02;;;15.32;;
16577;SDS011;8401;52.528;13.340;2022-08-19T10:10:07;15.95;;;14.45;;
16577;SDS011;8401;52.528;13.340;2022-08-19T10:12:34;16.30;;;14.70;;
16577;SDS011;8401;52.528;13.340;2022-08-19T10:15:00;16.17;;;14.65;;
16577;SDS011;8401;52.528;13.340;2022-08-19T10:17:26;16.98;;;15.38;;
16577;SDS011;8401;52.528;13.340;2022-08-19T10:19:52;16.17;;;14.68;;
16577;SDS011;8401;52.528;13.340;2022-08-19T10:22:18;16.92;;;14.95;;
16577;SDS011;8401;52.528;13.340;2022-08-19T10:24:47;16.38;;;14.90;;
16577;SDS011;8401;52.528;13.340;2022-08-19T10:27:13;16.08;;;14.57;;
16577;SDS011;8401;52.528;13.340;2022-08-19T10:29:39;17.00;;;15.40;;
16577;SDS011;8401;52.528;13.340;2022-08-19T10:32:06;16.23;;;14.52;;
16577;SDS011;8401;52.528;13.340;2022-08-19T10:34:33;16.65;;;14.75;;
16577;SDS011;8401;52.528;13.340;2022-08-19T10:37:01;16.40;;;14.75;;
16577;SDS011;8401;52.528;13.340;2022-08-19T10:39:31;15.82;;;14.23;;
16577;SDS011;8401;52.528;13.340;2022-08-19T10:41:58;16.58;;;14.73;;
16577;SDS011;8401;52.528;13.340;2022-08-19T10:44:24;16.38;;;14.68;;
16577;SDS011;8401;52.528;13.340;2022-08-19T10:46:50;16.02;;;14.52;;
16577;SDS011;8401;52.528;13.340;2022-08-19T10:49:17;16.50;;;14.90;;
16577;SDS011;8401;52.528;13.340;2022-08-19T10:51:44;16.02;;;14.50;;
16577;SDS011;8401;52.528;13.340;2022-08-19T10:54:28;16.83;;;14.75;;
16577;SDS011;8401;52.528;13.340;2022-08-19T10:57:12;15.90;;;14.30;;
16577;SDS011;8401;52.528;13.340;2022-08-19T10:59:39;17.52;;;15.80;;
16577;SDS011;8401;52.528;13.340;2022-08-19T11:02:07;16.58;;;14.90;;
16577;SDS011;8401;52.528;13.340;2022-08-19T11:04:34;16.50;;;15.00;;
16577;SDS011;8401;52.528;13.340;2022-08-19T11:07:01;16.55;;;14.95;;
16577;SDS011;8401;52.528;13.340;2022-08-19T11:09:28;16.38;;;14.77;;
16577;SDS011;8401;52.528;13.340;2022-08-19T11:11:54;16.38;;;14.85;;
16577;SDS011;8401;52.528;13.340;2022-08-19T11:14:21;15.00;;;13.63;;
16577;SDS011;8401;52.528;13.340;2022-08-19T11:16:50;15.85;;;14.35;;
16577;SDS011;8401;52.528;13.340;2022-08-19T11:19:18;14.70;;;13.20;;
16577;SDS011;8401;52.528;13.340;2022-08-19T11:21:45;15.23;;;13.70;;
16577;SDS011;8401;52.528;13.340;2022-08-19T11:24:17;15.10;;;13.57;;
16577;SDS011;8401;52.528;13.340;2022-08-19T11:26:45;14.18;;;12.88;;
16577;SDS011;8401;52.528;13.340;2022-08-19T11:29:13;14.52;;;13.18;;
16577;SDS011;8401;52.528;13.340;2022-08-19T11:31:40;15.60;;;13.80;;
16577;SDS011;8401;52.528;13.340;2022-08-19T11:34:08;14.07;;;12.63;;
16577;SDS011;8401;52.528;13.340;2022-08-19T11:36:37;14.68;;;13.05;;
16577;SDS011;8401;52.528;13.340;2022-08-19T11:39:05;15.38;;;12.20;;
16577;SDS011;8401;52.528;13.340;2022-08-19T11:41:32;13.40;;;12.13;;
16577;SDS011;8401;52.528;13.340;2022-08-19T11:43:58;12.30;;;11.20;;
16577;SDS011;8401;52.528;13.340;2022-08-19T11:46:24;13.95;;;11.75;;
16577;SDS011;8401;52.528;13.340;2022-08-19T11:48:54;13.20;;;11.68;;
16577;SDS011;8401;52.528;13.340;2022-08-19T11:51:21;12.02;;;10.93;;
16577;SDS011;8401;52.528;13.340;2022-08-19T11:53:49;12.68;;;11.48;;
16577;SDS011;8401;52.528;13.340;2022-08-19T11:56:16;12.10;;;10.43;;
16577;SDS011;8401;52.528;13.340;2022-08-19T11:58:43;11.77;;;10.05;;
16577;SDS011;8401;52.528;13.340;2022-08-19T12:01:10;12.07;;;10.98;;
16577;SDS011;8401;52.528;13.340;2022-08-19T12:03:37;12.38;;;11.18;;
16577;SDS011;8401;52.528;13.340;2022-08-19T12:06:04;11.95;;;10.75;;
16577;SDS011;8401;52.528;13.340;2022-08-19T12:08:31;11.43;;;10.25;;
16577;SDS011;8401;52.528;13.340;2022-08-19T12:10:57;11.98;;;10.80;;
16577;SDS011;8401;52.528;13.340;2022-08-19T12:13:22;11.45;;;10.43;;
16577;SDS011;8401;52.528;13.340;2022-08-19T12:15:49;11.95;;;10.75;;
16577;SDS011;8401;52.528;13.340;2022-08-19T12:18:14;11.55;;;10.45;;
16577;SDS011;8401;52.528;13.340;2022-08-19T12:20:41;12.95;;;11.75;;
16577;SDS011;8401;52.528;13.340;2022-08-19T12:23:08;11.85;;;10.65;;
16577;SDS011;8401;52.528;13.340;2022-08-19T12:25:35;11.40;;;10.25;;
16577;SDS011;8401;52.528;13.340;2022-08-19T12:28:01;10.77;;;9.77;;
16577;SDS011;8401;52.528;13.340;2022-08-19T12:30:27;10.93;;;9.82;;
16577;SDS011;8401;52.528;13.340;2022-08-19T12:32:53;11.45;;;10.38;;
16577;SDS011;8401;52.528;13.340;2022-08-19T12:35:18;10.73;;;9.73;;
16577;SDS011;8401;52.528;13.340;2022-08-19T12:37:47;10.50;;;9.60;;
16577;SDS011;8401;52.528;13.340;2022-08-19T12:40:14;11.10;;;10.05;;
16577;SDS011;8401;52.528;13.340;2022-08-19T12:42:40;10.32;;;9.43;;
16577;SDS011;8401;52.528;13.340;2022-08-19T12:45:07;11.13;;;10.13;;
16577;SDS011;8401;52.528;13.340;2022-08-19T12:47:34;10.88;;;9.88;;
16577;SDS011;8401;52.528;13.340;2022-08-19T12:50:00;11.50;;;10.40;;
16577;SDS011;8401;52.528;13.340;2022-08-19T12:52:26;10.57;;;9.52;;
16577;SDS011;8401;52.528;13.340;2022-08-19T12:54:53;10.20;;;9.30;;
16577;SDS011;8401;52.528;13.340;2022-08-19T12:57:20;10.57;;;9.60;;
16577;SDS011;8401;52.528;13.340;2022-08-19T12:59:48;10.95;;;9.82;;
16577;SDS011;8401;52.528;13.340;2022-08-19T13:02:18;10.90;;;9.80;;
16577;SDS011;8401;52.528;13.340;2022-08-19T13:04:44;10.48;;;9.45;;
16577;SDS011;8401;52.528;13.340;2022-08-19T13:07:10;10.63;;;9.52;;
16577;SDS011;8401;52.528;13.340;2022-08-19T13:09:36;12.05;;;10.13;;
16577;SDS011;8401;52.528;13.340;2022-08-19T13:12:02;11.82;;;10.75;;
16577;SDS011;8401;52.528;13.340;2022-08-19T13:14:32;11.30;;;10.18;;
16577;SDS011;8401;52.528;13.340;2022-08-19T13:16:58;13.20;;;10.27;;
16577;SDS011;8401;52.528;13.340;2022-08-19T13:19:24;13.02;;;10.23;;
16577;SDS011;8401;52.528;13.340;2022-08-19T13:21:50;12.05;;;10.77;;
16577;SDS011;8401;52.528;13.340;2022-08-19T13:24:16;11.70;;;10.60;;
16577;SDS011;8401;52.528;13.340;2022-08-19T13:26:43;12.80;;;11.60;;
16577;SDS011;8401;52.528;13.340;2022-08-19T13:29:08;11.70;;;10.48;;
16577;SDS011;8401;52.528;13.340;2022-08-19T13:31:53;13.07;;;11.77;;
16577;SDS011;8401;52.528;13.340;2022-08-19T13:34:37;12.30;;;10.98;;
16577;SDS011;8401;52.528;13.340;2022-08-19T13:37:03;12.27;;;11.18;;
16577;SDS011;8401;52.528;13.340;2022-08-19T13:39:30;12.68;;;11.48;;
16577;SDS011;8401;52.528;13.340;2022-08-19T13:41:59;13.18;;;11.88;;
16577;SDS011;8401;52.528;13.340;2022-08-19T13:44:26;12.50;;;11.23;;
16577;SDS011;8401;52.528;13.340;2022-08-19T13:46:54;12.05;;;10.85;;
16577;SDS011;8401;52.528;13.340;2022-08-19T13:49:31;13.55;;;11.65;;
16577;SDS011;8401;52.528;13.340;2022-08-19T13:51:58;11.85;;;10.75;;
16577;SDS011;8401;52.528;13.340;2022-08-19T13:54:23;12.70;;;11.18;;
16577;SDS011;8401;52.528;13.340;2022-08-19T13:56:49;12.23;;;11.00;;
16577;SDS011;8401;52.528;13.340;2022-08-19T13:59:15;13.10;;;11.77;;
16577;SDS011;8401;52.528;13.340;2022-08-19T14:01:42;13.18;;;11.88;;
16577;SDS011;8401;52.528;13.340;2022-08-19T14:04:08;12.95;;;11.68;;
16577;SDS011;8401;52.528;13.340;2022-08-19T14:06:34;13.13;;;11.93;;
16577;SDS011;8401;52.528;13.340;2022-08-19T14:09:00;12.77;;;11.48;;
16577;SDS011;8401;52.528;13.340;2022-08-19T14:11:27;11.50;;;10.38;;
16577;SDS011;8401;52.528;13.340;2022-08-19T14:13:53;12.68;;;11.45;;
16577;SDS011;8401;52.528;13.340;2022-08-19T14:16:18;12.10;;;11.02;;
16577;SDS011;8401;52.528;13.340;2022-08-19T14:18:44;12.57;;;11.48;;
16577;SDS011;8401;52.528;13.340;2022-08-19T14:21:14;12.88;;;11.65;;
16577;SDS011;8401;52.528;13.340;2022-08-19T14:23:48;13.43;;;12.13;;
16577;SDS011;8401;52.528;13.340;2022-08-19T14:26:16;13.65;;;12.25;;
16577;SDS011;8401;52.528;13.340;2022-08-19T14:28:42;12.10;;;10.88;;
16577;SDS011;8401;52.528;13.340;2022-08-19T14:31:13;12.95;;;11.85;;
16577;SDS011;8401;52.528;13.340;2022-08-19T14:33:43;12.70;;;11.57;;
16577;SDS011;8401;52.528;13.340;2022-08-19T14:36:09;12.38;;;11.18;;
16577;SDS011;8401;52.528;13.340;2022-08-19T14:38:35;12.18;;;11.07;;